Time;durP1;ratioP1;P1;durP2;ratioP2;P2;SDS_P1;SDS_P2;PMS_P1;PMS_P2;Temp;Humidity;BMP_temperature;BMP_pressure;BME280_temperature;BME280_humidity;BME280_pressure;Samples;Min_cycle;Max_cycle;Signal;HPM_P1;HPM_P2
2022/03/02 00:01:50;;;;;;;29.65;20.02;;;5.70;99.90;;;;;;5032743;28;20543;-73
2022/03/02 00:04:15;;;;;;;30.52;20.35;;;5.70;99.90;;;;;;5022184;28;20034;-73
2022/03/02 00:06:41;;;;;;;31.92;20.33;;;5.70;99.90;;;;;;5012759;28;20095;-73
2022/03/02 00:09:06;;;;;;;30.65;20.63;;;5.70;99.90;;;;;;5028471;28;20410;-73
2022/03/02 00:11:32;;;;;;;32.15;21.30;;;5.70;99.90;;;;;;5016195;28;20041;-73
2022/03/02 00:14:00;;;;;;;30.30;20.80;;;5.70;99.90;;;;;;5030555;28;20445;-73
2022/03/02 00:16:26;;;;;;;30.88;19.63;;;5.70;99.90;;;;;;5028614;28;20049;-73
2022/03/02 00:18:51;;;;;;;32.30;21.52;;;5.70;99.90;;;;;;5013311;28;20050;-73
2022/03/02 00:21:18;;;;;;;28.83;19.77;;;5.80;99.90;;;;;;5013114;28;20038;-73
2022/03/02 00:23:44;;;;;;;31.75;20.65;;;5.70;99.90;;;;;;4995858;28;20034;-73
2022/03/02 00:26:09;;;;;;;32.83;21.20;;;5.70;99.90;;;;;;5012572;28;20116;-73
2022/03/02 00:28:35;;;;;;;30.58;20.20;;;5.70;99.90;;;;;;5013420;28;20046;-73
2022/03/02 00:31:00;;;;;;;33.28;20.98;;;5.80;99.90;;;;;;5013029;28;20034;-73
2022/03/02 00:33:26;;;;;;;34.78;22.10;;;5.70;99.90;;;;;;5013036;28;20045;-73
2022/03/02 00:35:52;;;;;;;32.60;21.17;;;5.70;99.90;;;;;;5019790;28;20091;-73
2022/03/02 00:38:17;;;;;;;32.58;21.23;;;5.70;99.90;;;;;;5012866;28;20042;-73
2022/03/02 00:40:43;;;;;;;29.27;20.30;;;5.80;99.90;;;;;;5004377;28;20045;-73
2022/03/02 00:43:09;;;;;;;29.23;20.70;;;5.70;99.90;;;;;;5031643;28;20518;-73
2022/03/02 00:45:35;;;;;;;30.13;19.77;;;5.70;99.90;;;;;;5023209;28;20057;-73
2022/03/02 00:48:03;;;;;;;30.60;21.40;;;5.70;99.90;;;;;;5012646;28;20053;-73
2022/03/02 00:50:30;;;;;;;30.35;20.92;;;5.70;99.90;;;;;;5012445;28;20070;-73
2022/03/02 00:52:55;;;;;;;32.03;21.38;;;5.70;99.90;;;;;;5013253;28;20056;-73
2022/03/02 00:55:21;;;;;;;30.45;20.20;;;5.70;99.90;;;;;;5011622;28;20499;-73
2022/03/02 00:57:47;;;;;;;31.02;21.60;;;5.70;99.90;;;;;;5012678;28;20491;-73
2022/03/02 01:00:13;;;;;;;30.67;20.45;;;5.70;99.90;;;;;;5028148;28;20057;-73
2022/03/02 01:02:39;;;;;;;32.78;20.98;;;5.70;99.90;;;;;;5012269;28;20096;-73
2022/03/02 01:05:07;;;;;;;28.90;19.02;;;5.60;99.90;;;;;;5014943;28;20042;-73
2022/03/02 01:07:33;;;;;;;32.95;21.50;;;5.70;99.90;;;;;;5016667;28;20490;-73
2022/03/02 01:09:59;;;;;;;31.27;21.33;;;5.70;99.90;;;;;;5030229;28;20037;-73
2022/03/02 01:12:25;;;;;;;32.30;20.92;;;5.70;99.90;;;;;;5024587;28;20117;-73
2022/03/02 01:14:51;;;;;;;31.83;20.27;;;5.70;99.90;;;;;;5031796;28;20042;-73
2022/03/02 01:17:18;;;;;;;32.25;21.15;;;5.60;99.90;;;;;;5015247;28;20077;-73
2022/03/02 01:19:43;;;;;;;33.33;21.15;;;5.60;99.90;;;;;;5031640;28;20042;-73
2022/03/02 01:22:09;;;;;;;31.52;20.05;;;5.60;99.90;;;;;;5015232;28;20184;-73
2022/03/02 01:24:35;;;;;;;32.92;20.88;;;5.70;99.90;;;;;;5031881;28;20125;-73
2022/03/02 01:27:04;;;;;;;33.13;21.52;;;5.80;99.90;;;;;;5016550;28;20127;-73
2022/03/02 01:29:31;;;;;;;28.88;19.92;;;5.70;99.90;;;;;;5015062;28;20042;-73
2022/03/02 01:31:57;;;;;;;36.45;21.55;;;5.60;99.90;;;;;;5016020;28;20399;-73
2022/03/02 01:34:23;;;;;;;34.78;22.58;;;5.60;99.90;;;;;;5048125;28;20050;-73
2022/03/02 01:36:49;;;;;;;32.05;20.70;;;5.60;99.90;;;;;;5014760;28;20074;-73
2022/03/02 01:39:14;;;;;;;33.40;22.08;;;5.70;99.90;;;;;;5031299;28;20426;-73
2022/03/02 01:41:40;;;;;;;35.67;22.33;;;5.70;99.90;;;;;;5034925;28;20077;-73
2022/03/02 01:44:05;;;;;;;35.90;21.50;;;5.70;99.90;;;;;;5034484;28;20083;-72
2022/03/02 01:46:31;;;;;;;36.95;22.92;;;5.60;99.90;;;;;;5029379;28;20041;-73
2022/03/02 01:48:57;;;;;;;33.95;22.15;;;5.60;99.90;;;;;;5034767;28;20045;-73
2022/03/02 01:51:24;;;;;;;34.22;22.13;;;5.60;99.90;;;;;;5022109;28;20041;-73
2022/03/02 01:53:50;;;;;;;35.58;21.92;;;5.60;99.90;;;;;;5014670;28;20072;-73
2022/03/02 01:56:16;;;;;;;32.28;21.35;;;5.60;99.90;;;;;;5003279;28;20494;-73
2022/03/02 01:58:44;;;;;;;34.33;22.50;;;5.70;99.90;;;;;;5014461;28;20049;-73
2022/03/02 02:01:10;;;;;;;34.75;22.55;;;5.70;99.90;;;;;;5014199;28;20080;-73
2022/03/02 02:03:36;;;;;;;32.72;21.55;;;5.70;99.90;;;;;;5014655;28;20085;-74
2022/03/02 02:06:02;;;;;;;35.88;23.60;;;5.70;99.90;;;;;;5015504;28;20091;-73
2022/03/02 02:08:28;;;;;;;34.13;23.23;;;5.80;99.90;;;;;;5014636;28;20046;-73
2022/03/02 02:10:58;;;;;;;35.85;22.45;;;5.70;99.90;;;;;;5015744;28;20112;-74
2022/03/02 02:13:25;;;;;;;37.10;24.13;;;5.70;99.90;;;;;;5013496;28;20503;-73
2022/03/02 02:15:53;;;;;;;38.13;23.75;;;5.60;99.90;;;;;;5012573;28;20037;-73
2022/03/02 02:18:18;;;;;;;39.28;24.40;;;5.60;99.90;;;;;;5015325;28;20049;-73
2022/03/02 02:20:44;;;;;;;36.30;23.95;;;5.60;99.90;;;;;;5014099;28;20045;-73
2022/03/02 02:23:10;;;;;;;35.35;23.58;;;5.60;99.90;;;;;;5029589;28;20092;-73
2022/03/02 02:25:35;;;;;;;36.30;24.15;;;5.60;99.90;;;;;;5014507;28;20042;-73
2022/03/02 02:28:01;;;;;;;34.03;23.70;;;5.60;99.90;;;;;;5015157;28;20449;-73
2022/03/02 02:30:29;;;;;;;33.92;22.98;;;5.60;99.90;;;;;;5014201;28;20578;-74
2022/03/02 02:32:54;;;;;;;34.72;23.42;;;5.60;99.90;;;;;;5013405;28;20038;-73
2022/03/02 02:35:20;;;;;;;37.65;23.05;;;5.60;99.90;;;;;;5029218;28;20041;-73
2022/03/02 02:37:46;;;;;;;35.72;23.65;;;5.60;99.90;;;;;;5013701;28;20045;-73
2022/03/02 02:40:15;;;;;;;36.35;24.27;;;5.60;99.90;;;;;;5013636;28;20042;-73
2022/03/02 02:42:44;;;;;;;34.15;22.63;;;5.60;99.90;;;;;;5025808;28;20045;-73
2022/03/02 02:45:17;;;;;;;37.28;24.15;;;5.60;99.90;;;;;;5029975;28;20049;-73
2022/03/02 02:47:44;;;;;;;38.22;25.83;;;5.60;99.90;;;;;;5014800;28;20045;-73
2022/03/02 02:50:20;;;;;;;36.50;24.40;;;5.50;99.90;;;;;;5030071;28;20069;-74
2022/03/02 02:52:46;;;;;;;39.35;25.85;;;5.50;99.90;;;;;;5013586;28;20049;-73
2022/03/02 02:55:13;;;;;;;37.65;24.83;;;5.40;99.90;;;;;;5013651;28;20033;-73
2022/03/02 02:57:40;;;;;;;39.08;25.35;;;5.40;99.90;;;;;;5014632;28;20131;-73
2022/03/02 03:00:09;;;;;;;40.35;25.40;;;5.50;99.90;;;;;;5013538;28;20050;-73
2022/03/02 03:02:34;;;;;;;38.53;24.55;;;5.50;99.90;;;;;;5014371;28;20053;-73
2022/03/02 03:05:00;;;;;;;36.67;24.85;;;5.50;99.90;;;;;;5013853;28;20038;-73
2022/03/02 03:07:25;;;;;;;37.88;25.35;;;5.50;99.90;;;;;;5014217;28;20405;-73
2022/03/02 03:09:51;;;;;;;41.65;25.77;;;5.50;99.90;;;;;;5014543;28;20088;-73
2022/03/02 03:12:17;;;;;;;41.90;27.48;;;5.50;99.90;;;;;;5013827;28;20040;-73
2022/03/02 03:14:43;;;;;;;41.42;25.65;;;5.40;99.90;;;;;;5012801;28;20045;-73
2022/03/02 03:17:09;;;;;;;37.10;25.15;;;5.40;99.90;;;;;;5012660;28;20042;-73
2022/03/02 03:19:35;;;;;;;40.08;26.33;;;5.40;99.90;;;;;;5014247;28;20042;-73
2022/03/02 03:22:06;;;;;;;39.08;26.63;;;5.30;99.90;;;;;;5029377;28;20125;-73
2022/03/02 03:24:32;;;;;;;38.90;25.35;;;5.30;99.90;;;;;;5032659;28;20041;-73
2022/03/02 03:26:58;;;;;;;39.25;26.35;;;5.30;99.90;;;;;;5033683;28;20041;-73
2022/03/02 03:29:24;;;;;;;39.47;27.08;;;5.20;99.90;;;;;;5014750;28;20048;-73
2022/03/02 03:31:49;;;;;;;41.50;27.50;;;5.20;99.90;;;;;;4996342;28;20107;-73
2022/03/02 03:34:15;;;;;;;41.45;26.85;;;5.10;99.90;;;;;;5012701;28;20045;-73
2022/03/02 03:36:41;;;;;;;39.80;26.33;;;5.10;99.90;;;;;;5029093;28;20042;-73
2022/03/02 03:39:07;;;;;;;36.08;25.55;;;5.10;99.90;;;;;;5028584;28;20410;-73
2022/03/02 03:41:33;;;;;;;37.55;25.08;;;5.10;99.90;;;;;;5012675;28;20494;-73
2022/03/02 03:43:59;;;;;;;39.35;25.40;;;5.10;99.90;;;;;;5024074;28;20068;-72
2022/03/02 03:46:25;;;;;;;40.42;26.80;;;5.10;99.90;;;;;;5033566;28;20103;-73
2022/03/02 03:48:50;;;;;;;41.08;26.67;;;5.00;99.90;;;;;;5011817;28;20049;-73
2022/03/02 03:51:16;;;;;;;37.17;24.73;;;5.00;99.90;;;;;;5013791;28;20482;-73
2022/03/02 03:53:41;;;;;;;40.47;25.70;;;5.00;99.90;;;;;;5020248;28;20489;-73
2022/03/02 03:56:07;;;;;;;39.40;25.45;;;5.00;99.90;;;;;;5017459;28;20033;-73
2022/03/02 03:58:32;;;;;;;38.20;26.20;;;4.90;99.90;;;;;;5012783;28;20867;-73
2022/03/02 04:00:58;;;;;;;38.53;26.38;;;4.80;99.90;;;;;;5011191;28;20037;-73
2022/03/02 04:03:24;;;;;;;37.13;25.20;;;4.80;99.90;;;;;;5018070;28;20172;-73
2022/03/02 04:05:50;;;;;;;37.67;26.15;;;4.80;99.90;;;;;;5003802;28;20033;-73
2022/03/02 04:08:16;;;;;;;39.08;24.20;;;4.80;99.90;;;;;;5023895;28;20052;-73
2022/03/02 04:10:42;;;;;;;38.50;25.33;;;4.80;99.90;;;;;;5011189;28;20041;-73
2022/03/02 04:13:08;;;;;;;41.13;25.33;;;4.80;99.90;;;;;;5021821;28;20406;-73
2022/03/02 04:15:34;;;;;;;39.17;25.38;;;4.70;99.90;;;;;;5005489;28;20475;-73
2022/03/02 04:17:59;;;;;;;38.03;24.67;;;4.70;99.90;;;;;;5017542;28;20038;-73
2022/03/02 04:20:25;;;;;;;38.58;25.10;;;4.70;99.90;;;;;;5012173;28;20503;-73
2022/03/02 04:22:51;;;;;;;39.53;25.48;;;4.60;99.90;;;;;;5008836;28;20038;-73
2022/03/02 04:25:16;;;;;;;36.53;24.88;;;4.70;99.90;;;;;;5011694;28;20099;-73
2022/03/02 04:27:42;;;;;;;37.58;24.48;;;4.60;99.90;;;;;;5023541;28;20495;-73
2022/03/02 04:30:09;;;;;;;37.38;25.02;;;4.60;99.90;;;;;;5003057;28;20486;-73
2022/03/02 04:32:34;;;;;;;40.88;25.55;;;4.50;99.90;;;;;;5005606;28;20042;-73
2022/03/02 04:35:00;;;;;;;42.00;27.55;;;4.50;99.90;;;;;;4987529;28;20506;-73
2022/03/02 04:37:26;;;;;;;39.53;24.38;;;4.50;99.90;;;;;;5005508;28;20038;-73
2022/03/02 04:39:52;;;;;;;39.50;24.92;;;4.40;99.90;;;;;;5001928;28;20084;-73
2022/03/02 04:42:17;;;;;;;38.05;24.83;;;4.40;99.90;;;;;;5006854;28;20108;-73
2022/03/02 04:44:43;;;;;;;36.80;23.65;;;4.40;99.90;;;;;;5003175;28;20053;-73
2022/03/02 04:47:08;;;;;;;37.60;24.35;;;4.40;99.90;;;;;;5007068;28;20048;-73
2022/03/02 04:49:34;;;;;;;39.83;26.13;;;4.30;99.90;;;;;;5001739;28;20058;-73
2022/03/02 04:52:00;;;;;;;39.20;25.20;;;4.30;99.90;;;;;;4990720;28;21528;-73
2022/03/02 04:57:10;;;;;;;39.17;23.65;;;4.20;99.90;;;;;;5003079;28;20184;-73
2022/03/02 04:59:36;;;;;;;38.42;24.70;;;4.10;99.90;;;;;;5002606;28;20045;-73
2022/03/02 05:02:02;;;;;;;38.05;24.33;;;4.00;99.90;;;;;;5020674;28;20380;-73
2022/03/02 05:04:28;;;;;;;39.03;24.25;;;4.00;99.90;;;;;;5034684;28;20046;-73
2022/03/02 05:06:54;;;;;;;38.03;25.27;;;4.00;99.90;;;;;;5026727;28;20049;-73
2022/03/02 05:09:19;;;;;;;35.67;23.17;;;3.90;99.90;;;;;;5032646;28;20045;-73
2022/03/02 05:11:45;;;;;;;37.90;24.02;;;4.00;99.90;;;;;;5014095;28;20168;-73
2022/03/02 05:14:10;;;;;;;37.60;25.13;;;4.00;99.90;;;;;;5015434;28;20495;-73
2022/03/02 05:16:36;;;;;;;36.50;23.65;;;4.00;99.90;;;;;;5018572;28;20041;-73
2022/03/02 05:19:02;;;;;;;40.33;25.80;;;3.90;99.90;;;;;;5025673;28;20046;-73
2022/03/02 05:21:27;;;;;;;39.20;24.02;;;3.90;99.90;;;;;;5000672;28;20042;-73
2022/03/02 05:23:53;;;;;;;39.40;23.80;;;3.90;99.90;;;;;;5034884;28;20033;-73
2022/03/02 05:26:19;;;;;;;38.78;24.58;;;3.80;99.90;;;;;;5016703;28;20073;-73
2022/03/02 05:28:44;;;;;;;39.00;24.58;;;3.80;99.90;;;;;;5017076;28;20045;-73
2022/03/02 05:31:10;;;;;;;36.33;24.63;;;3.80;99.90;;;;;;5014800;28;20046;-74
2022/03/02 05:33:35;;;;;;;36.00;22.90;;;3.80;99.90;;;;;;5006118;28;20446;-73
2022/03/02 05:36:01;;;;;;;36.92;23.65;;;3.80;99.90;;;;;;5012629;28;20770;-73
2022/03/02 05:38:27;;;;;;;37.83;23.65;;;3.70;99.90;;;;;;5001491;28;20550;-73
2022/03/02 05:40:52;;;;;;;38.20;25.13;;;3.60;99.90;;;;;;4986432;28;20594;-73
2022/03/02 05:43:18;;;;;;;36.90;23.05;;;3.60;99.90;;;;;;5003878;28;20076;-73
2022/03/02 05:45:43;;;;;;;38.88;25.13;;;3.60;99.90;;;;;;5004043;28;20176;-73
2022/03/02 05:48:09;;;;;;;34.13;23.35;;;3.50;99.90;;;;;;5005327;28;20124;-73
2022/03/02 05:50:35;;;;;;;35.13;22.90;;;3.40;99.90;;;;;;5002768;28;20038;-73
2022/03/02 05:53:00;;;;;;;36.05;23.55;;;3.40;99.90;;;;;;5001313;28;20092;-73
2022/03/02 05:55:27;;;;;;;34.05;21.65;;;3.30;99.90;;;;;;5002880;28;20091;-73
2022/03/02 05:57:52;;;;;;;35.00;23.38;;;3.30;99.90;;;;;;5001984;28;20042;-73
2022/03/02 06:00:18;;;;;;;35.17;22.95;;;3.20;99.90;;;;;;5010293;28;20038;-73
2022/03/02 06:02:44;;;;;;;37.03;23.23;;;3.10;99.90;;;;;;5005729;28;20049;-73
2022/03/02 06:05:09;;;;;;;37.15;23.80;;;3.00;99.90;;;;;;5004665;28;20037;-73
2022/03/02 06:07:36;;;;;;;34.95;22.55;;;3.00;99.90;;;;;;5020103;28;20433;-73
2022/03/02 06:10:02;;;;;;;33.53;21.40;;;3.00;99.90;;;;;;5016063;28;20044;-73
2022/03/02 06:12:28;;;;;;;38.53;23.30;;;3.00;99.90;;;;;;5033319;28;20029;-73
2022/03/02 06:14:54;;;;;;;36.38;23.90;;;3.10;99.90;;;;;;5014161;28;20038;-73
2022/03/02 06:17:20;;;;;;;36.72;22.48;;;3.10;99.90;;;;;;5013973;28;20095;-73
2022/03/02 06:19:46;;;;;;;35.03;22.67;;;3.10;99.90;;;;;;5019787;28;20041;-73
2022/03/02 06:22:14;;;;;;;32.17;20.98;;;3.10;99.90;;;;;;5017189;28;20038;-73
2022/03/02 06:24:40;;;;;;;34.15;21.38;;;3.10;99.90;;;;;;5013308;28;20573;-73
2022/03/02 06:27:05;;;;;;;36.92;23.55;;;3.10;99.90;;;;;;5025697;28;20033;-73
2022/03/02 06:29:31;;;;;;;35.88;22.13;;;3.10;99.90;;;;;;5019679;28;20053;-73
2022/03/02 06:31:57;;;;;;;34.28;21.15;;;3.10;99.90;;;;;;5017567;28;20038;-73
2022/03/02 06:34:22;;;;;;;33.35;21.85;;;3.00;99.90;;;;;;5009476;28;20053;-73
2022/03/02 06:36:50;;;;;;;36.65;22.52;;;3.00;99.90;;;;;;5002556;28;20048;-73
2022/03/02 06:39:21;;;;;;;35.88;22.48;;;3.00;99.90;;;;;;5001752;28;20049;-73
2022/03/02 06:42:04;;;;;;;35.58;23.73;;;3.00;99.90;;;;;;5003038;28;20157;-73
2022/03/02 06:44:50;;;;;;;38.47;23.25;;;3.00;99.90;;;;;;5007825;28;20522;-72
2022/03/02 06:47:19;;;;;;;35.38;22.77;;;3.00;99.90;;;;;;5017010;28;20123;-73
2022/03/02 06:49:58;;;;;;;36.17;23.05;;;3.10;99.90;;;;;;5027268;28;20053;-73
2022/03/02 06:52:31;;;;;;;36.70;22.52;;;3.00;99.90;;;;;;5017189;28;20057;-73
2022/03/02 06:55:02;;;;;;;34.42;22.40;;;3.00;99.90;;;;;;5013211;28;20077;-73
2022/03/02 06:57:28;;;;;;;38.28;22.98;;;2.90;99.90;;;;;;5012922;28;20054;-73
2022/03/02 06:59:59;;;;;;;34.78;22.75;;;2.90;99.90;;;;;;5023904;28;20038;-73
2022/03/02 07:02:40;;;;;;;36.40;23.35;;;2.90;99.90;;;;;;5017435;28;20056;-73
2022/03/02 07:05:08;;;;;;;37.33;24.50;;;2.80;99.90;;;;;;5027539;28;20116;-73
2022/03/02 07:07:34;;;;;;;37.33;23.02;;;2.80;99.90;;;;;;5017187;28;20402;-73
2022/03/02 07:10:00;;;;;;;39.42;23.38;;;2.80;99.90;;;;;;5026870;28;20054;-73
2022/03/02 07:12:27;;;;;;;35.25;22.10;;;2.90;99.90;;;;;;5005108;28;20048;-73
2022/03/02 07:14:53;;;;;;;38.03;23.95;;;3.00;99.90;;;;;;5019574;28;20495;-73
2022/03/02 07:17:21;;;;;;;38.92;23.80;;;3.10;99.90;;;;;;5013879;28;20088;-73
2022/03/02 07:19:47;;;;;;;38.95;22.67;;;3.10;99.90;;;;;;5013895;28;20037;-73
2022/03/02 07:22:16;;;;;;;42.20;23.00;;;3.10;99.90;;;;;;5030460;28;20042;-73
2022/03/02 07:24:50;;;;;;;37.38;23.02;;;3.20;99.90;;;;;;5041815;28;20045;-73
2022/03/02 07:27:16;;;;;;;37.55;23.60;;;3.10;99.90;;;;;;5012831;28;20047;-73
2022/03/02 07:29:42;;;;;;;35.30;23.58;;;3.20;99.90;;;;;;5013493;28;20044;-73
2022/03/02 07:32:10;;;;;;;37.60;23.85;;;3.30;99.90;;;;;;5031187;28;20107;-73
2022/03/02 07:34:42;;;;;;;37.90;23.48;;;3.20;99.90;;;;;;5031629;28;20049;-73
2022/03/02 07:37:09;;;;;;;36.35;22.17;;;3.30;99.90;;;;;;5021819;28;20038;-73
2022/03/02 07:39:35;;;;;;;38.95;24.77;;;3.40;99.90;;;;;;5012007;28;20517;-73
2022/03/02 07:42:02;;;;;;;39.75;22.95;;;3.40;99.90;;;;;;5019457;28;20041;-73
2022/03/02 07:44:28;;;;;;;34.95;22.98;;;3.40;99.90;;;;;;5012346;28;20533;-73
2022/03/02 07:46:54;;;;;;;36.53;22.33;;;3.40;99.90;;;;;;5011120;28;20081;-73
2022/03/02 07:49:20;;;;;;;30.02;19.00;;;3.60;99.90;;;;;;5013541;28;20620;-79
2022/03/02 07:51:50;;;;;;;36.50;23.60;;;3.70;99.90;;;;;;5020685;28;20049;-74
2022/03/02 07:54:17;;;;;;;37.92;23.95;;;3.80;99.90;;;;;;5033054;28;20052;-73
2022/03/02 07:56:44;;;;;;;35.83;22.98;;;3.80;99.90;;;;;;5020729;28;20088;-73
2022/03/02 07:59:10;;;;;;;40.78;24.15;;;3.90;99.90;;;;;;5023637;28;20058;-73
2022/03/02 08:01:37;;;;;;;36.67;22.73;;;3.90;99.90;;;;;;5012858;28;20044;-73
2022/03/02 08:04:09;;;;;;;37.33;23.55;;;4.00;99.90;;;;;;5013274;28;20045;-73
2022/03/02 08:06:37;;;;;;;35.50;22.77;;;4.10;99.90;;;;;;5015064;28;20116;-73
2022/03/02 08:09:04;;;;;;;35.67;22.85;;;4.00;99.90;;;;;;5031392;28;20045;-73
2022/03/02 08:11:32;;;;;;;34.55;21.42;;;4.20;99.90;;;;;;5014037;28;20049;-73
2022/03/02 08:13:59;;;;;;;39.35;25.48;;;4.20;99.90;;;;;;5011647;28;20042;-73
2022/03/02 08:16:29;;;;;;;35.83;22.40;;;4.10;99.90;;;;;;5016433;28;20112;-73
2022/03/02 08:18:57;;;;;;;36.22;24.00;;;4.10;99.90;;;;;;5011339;28;20110;-74
2022/03/02 08:21:26;;;;;;;36.80;23.38;;;4.20;99.90;;;;;;5025826;28;20034;-73
2022/03/02 08:23:53;;;;;;;37.30;24.45;;;4.20;99.90;;;;;;4995714;28;20041;-73
2022/03/02 08:26:21;;;;;;;38.35;24.30;;;4.30;99.90;;;;;;5010528;28;20487;-73
2022/03/02 08:28:46;;;;;;;38.72;24.42;;;4.40;99.90;;;;;;4994742;28;20042;-73
2022/03/02 08:31:13;;;;;;;38.28;24.35;;;4.50;99.90;;;;;;5011034;28;20111;-73
2022/03/02 08:33:41;;;;;;;41.97;24.13;;;4.50;99.90;;;;;;5030001;28;20560;-73
2022/03/02 08:36:09;;;;;;;36.50;22.52;;;4.60;99.90;;;;;;5035353;28;20042;-73
2022/03/02 08:38:40;;;;;;;36.65;22.92;;;4.70;99.90;;;;;;5018104;28;20414;-73
2022/03/02 08:41:07;;;;;;;37.10;23.47;;;4.70;99.90;;;;;;4999221;28;20039;-74
2022/03/02 08:43:35;;;;;;;33.90;20.60;;;4.80;99.90;;;;;;5031201;28;20034;-73
2022/03/02 08:46:01;;;;;;;39.85;24.17;;;5.00;99.90;;;;;;5030664;28;20072;-73
2022/03/02 08:48:27;;;;;;;33.38;20.75;;;4.90;99.90;;;;;;5031593;28;20055;-73
2022/03/02 08:50:56;;;;;;;36.85;23.95;;;5.20;99.90;;;;;;5026191;28;20465;-73
2022/03/02 08:53:25;;;;;;;37.60;23.90;;;5.20;99.90;;;;;;5028187;28;20037;-73
2022/03/02 08:55:51;;;;;;;37.38;24.70;;;5.10;99.90;;;;;;5016131;28;20045;-73
2022/03/02 08:58:17;;;;;;;41.53;24.65;;;5.10;99.90;;;;;;5030132;28;20051;-73
2022/03/02 09:00:43;;;;;;;40.45;23.67;;;5.20;99.90;;;;;;5029665;28;20033;-73
2022/03/02 09:03:14;;;;;;;38.47;24.20;;;5.10;99.90;;;;;;5031242;28;20441;-73
2022/03/02 09:05:40;;;;;;;37.22;24.30;;;5.30;99.90;;;;;;5026656;28;20500;-73
2022/03/02 09:08:07;;;;;;;36.63;22.52;;;5.30;99.90;;;;;;5003273;28;20041;-73
2022/03/02 09:10:33;;;;;;;36.80;24.00;;;5.50;99.90;;;;;;5027881;28;20042;-73
2022/03/02 09:12:59;;;;;;;36.17;22.27;;;5.50;99.90;;;;;;5011625;28;20064;-73
2022/03/02 09:15:28;;;;;;;40.65;24.65;;;5.60;99.90;;;;;;5011502;28;20053;-73
2022/03/02 09:17:55;;;;;;;36.10;23.27;;;5.70;99.90;;;;;;5031010;28;20432;-73
2022/03/02 09:20:23;;;;;;;34.03;21.13;;;5.80;99.90;;;;;;5029928;28;20053;-73
2022/03/02 09:22:50;;;;;;;34.20;22.33;;;5.90;99.90;;;;;;5029759;28;20049;-74
2022/03/02 09:25:16;;;;;;;35.78;22.92;;;5.90;99.90;;;;;;5008674;28;20029;-73
2022/03/02 09:27:43;;;;;;;34.80;21.90;;;6.00;99.90;;;;;;5034879;28;20459;-74
2022/03/02 09:30:10;;;;;;;33.20;22.92;;;6.00;99.90;;;;;;5032999;28;20120;-73
2022/03/02 09:32:40;;;;;;;34.05;22.40;;;6.20;99.90;;;;;;5034658;28;20433;-73
2022/03/02 09:35:10;;;;;;;33.38;20.40;;;6.40;99.90;;;;;;5016105;28;20515;-73
2022/03/02 09:37:37;;;;;;;33.97;22.65;;;6.50;99.90;;;;;;5014238;28;20449;-73
2022/03/02 09:40:04;;;;;;;36.65;22.70;;;6.60;99.90;;;;;;5013800;28;20053;-73
2022/03/02 09:42:35;;;;;;;33.22;21.02;;;6.70;99.90;;;;;;5014911;28;20037;-73
2022/03/02 09:45:06;;;;;;;34.88;21.77;;;6.70;99.90;;;;;;5029958;28;20060;-73
2022/03/02 09:48:00;;;;;;;32.45;20.00;;;7.00;99.90;;;;;;5031976;28;20052;-74
2022/03/02 09:50:31;;;;;;;35.88;21.42;;;7.00;99.90;;;;;;5034121;28;20512;-73
2022/03/02 09:53:00;;;;;;;33.50;21.08;;;7.00;99.90;;;;;;5032724;28;20041;-73
2022/03/02 09:55:27;;;;;;;31.38;20.92;;;7.00;99.90;;;;;;5034043;28;20045;-73
2022/03/02 09:57:55;;;;;;;34.47;21.65;;;7.10;99.90;;;;;;5021998;28;20398;-74
2022/03/02 10:00:23;;;;;;;32.15;20.02;;;7.10;99.90;;;;;;5034122;28;20111;-73
2022/03/02 10:02:59;;;;;;;30.23;20.58;;;7.20;99.90;;;;;;5033014;28;20445;-73
2022/03/02 10:05:30;;;;;;;34.08;20.95;;;7.10;99.90;;;;;;5049423;28;20478;-73
2022/03/02 10:08:02;;;;;;;31.63;20.20;;;7.20;99.90;;;;;;5027390;28;20425;-74
2022/03/02 10:10:33;;;;;;;30.65;20.42;;;7.60;99.90;;;;;;5034012;28;20037;-73
2022/03/02 10:13:01;;;;;;;31.85;19.58;;;7.60;99.90;;;;;;5030621;28;20490;-73
2022/03/02 10:15:27;;;;;;;30.52;19.85;;;7.60;99.90;;;;;;5025597;28;20088;-73
2022/03/02 10:17:56;;;;;;;31.48;20.65;;;7.80;99.90;;;;;;5022847;28;20043;-74
2022/03/02 10:20:27;;;;;;;30.73;20.50;;;7.60;99.90;;;;;;5032598;28;20060;-73
2022/03/02 10:23:07;;;;;;;32.00;19.25;;;7.80;99.90;;;;;;5034742;28;20038;-73
2022/03/02 10:25:39;;;;;;;29.65;19.63;;;7.90;99.90;;;;;;5015218;28;20042;-73
2022/03/02 10:28:07;;;;;;;30.35;20.60;;;7.90;99.90;;;;;;4997150;28;20117;-73
2022/03/02 10:30:39;;;;;;;30.05;20.67;;;8.00;99.90;;;;;;5033012;28;20095;-74
2022/03/02 10:33:20;;;;;;;31.27;20.90;;;7.70;99.90;;;;;;5023446;28;20363;-74
2022/03/02 10:36:03;;;;;;;29.90;19.52;;;7.90;99.90;;;;;;5029840;28;20108;-73
2022/03/02 10:38:55;;;;;;;33.03;21.48;;;8.00;99.90;;;;;;5033259;28;20054;-73
2022/03/02 10:41:21;;;;;;;31.75;20.15;;;8.00;99.90;;;;;;5033385;28;20521;-73
2022/03/02 10:44:00;;;;;;;29.50;19.88;;;8.00;99.90;;;;;;5013424;28;20042;-73
2022/03/02 10:46:26;;;;;;;27.80;19.85;;;8.10;99.90;;;;;;5013433;28;20499;-73
2022/03/02 10:49:03;;;;;;;29.33;19.77;;;8.20;98.30;;;;;;5030860;28;20041;-73
2022/03/02 10:51:31;;;;;;;29.98;19.48;;;8.20;99.70;;;;;;5013559;28;20050;-73
2022/03/02 10:53:58;;;;;;;28.75;18.20;;;8.20;99.90;;;;;;5033105;28;20186;-73
2022/03/02 10:56:27;;;;;;;28.73;19.35;;;8.40;99.90;;;;;;5043588;28;20049;-73
2022/03/02 10:58:54;;;;;;;30.65;20.08;;;8.30;99.90;;;;;;5031550;28;20083;-74
2022/03/02 11:01:21;;;;;;;29.15;20.13;;;8.50;99.90;;;;;;5034048;28;20046;-73
2022/03/02 11:03:47;;;;;;;28.92;19.67;;;8.40;99.90;;;;;;5031652;28;20041;-74
2022/03/02 11:06:14;;;;;;;29.27;19.08;;;8.40;99.80;;;;;;5013518;28;20059;-74
2022/03/02 11:08:43;;;;;;;26.92;17.50;;;8.50;99.90;;;;;;5032707;28;20037;-73
2022/03/02 11:11:09;;;;;;;31.52;20.95;;;8.60;99.90;;;;;;5033636;28;20049;-77
2022/03/02 11:13:35;;;;;;;28.25;17.92;;;8.60;99.90;;;;;;5031462;28;20046;-73
2022/03/02 11:16:03;;;;;;;30.33;19.38;;;8.60;99.90;;;;;;5028856;28;20045;-73
2022/03/02 11:18:49;;;;;;;27.55;18.70;;;8.70;99.90;;;;;;5024647;28;20128;-73
2022/03/02 11:21:20;;;;;;;27.90;19.23;;;8.90;99.90;;;;;;5032155;28;20030;-73
2022/03/02 11:23:49;;;;;;;29.08;20.67;;;8.80;98.30;;;;;;5023153;28;20033;-73
2022/03/02 11:26:18;;;;;;;34.13;19.25;;;8.70;99.10;;;;;;5020579;28;20036;-73
2022/03/02 11:28:49;;;;;;;26.92;17.02;;;8.80;99.90;;;;;;4996508;28;20406;-73
2022/03/02 11:31:24;;;;;;;27.27;18.48;;;8.80;99.90;;;;;;5012735;28;20429;-73
2022/03/02 11:33:51;;;;;;;31.83;19.17;;;8.90;99.90;;;;;;5020144;28;20493;-73
2022/03/02 11:36:18;;;;;;;27.88;16.60;;;8.80;98.30;;;;;;5033300;28;20039;-73
2022/03/02 11:38:49;;;;;;;29.42;19.42;;;8.80;99.90;;;;;;5012892;28;20213;-73
2022/03/02 11:41:15;;;;;;;31.30;18.70;;;8.90;96.70;;;;;;5020981;28;20045;-73
2022/03/02 11:43:41;;;;;;;30.13;18.08;;;8.90;98.10;;;;;;5024882;28;20037;-73
2022/03/02 11:46:10;;;;;;;31.50;19.73;;;8.90;99.50;;;;;;5031851;28;20394;-73
2022/03/02 11:48:41;;;;;;;27.48;18.95;;;8.90;97.60;;;;;;5029628;28;20513;-73
2022/03/02 11:51:08;;;;;;;27.35;18.45;;;8.90;98.50;;;;;;5031794;28;20071;-73
2022/03/02 11:53:41;;;;;;;27.15;18.30;;;8.80;98.20;;;;;;5014444;28;20454;-73
2022/03/02 11:56:10;;;;;;;29.10;18.23;;;8.80;98.40;;;;;;5032987;28;20037;-73
2022/03/02 11:58:52;;;;;;;30.25;19.25;;;8.80;97.50;;;;;;5023207;28;20042;-73
2022/03/02 12:01:18;;;;;;;27.63;18.75;;;8.90;97.20;;;;;;5022787;28;20041;-73
2022/03/02 12:04:01;;;;;;;29.10;18.90;;;8.90;96.20;;;;;;5029916;28;20048;-73
2022/03/02 12:06:30;;;;;;;28.30;18.10;;;8.90;93.90;;;;;;5023643;28;20029;-73
2022/03/02 12:08:57;;;;;;;26.02;18.00;;;8.90;96.90;;;;;;5026750;28;20442;-73
2022/03/02 12:11:31;;;;;;;25.52;17.40;;;8.90;92.10;;;;;;5020599;28;20045;-73
2022/03/02 12:14:10;;;;;;;27.42;17.20;;;8.90;96.40;;;;;;4996359;28;20070;-73
2022/03/02 12:16:46;;;;;;;27.05;17.50;;;9.00;96.50;;;;;;5014275;28;20600;-73
2022/03/02 12:19:24;;;;;;;27.42;18.10;;;9.00;91.50;;;;;;5031353;28;20482;-73
2022/03/02 12:21:53;;;;;;;26.67;16.25;;;8.80;93.40;;;;;;5015382;28;20076;-73
2022/03/02 12:24:30;;;;;;;25.27;17.13;;;8.90;93.30;;;;;;5016110;28;20050;-73
2022/03/02 12:27:10;;;;;;;24.33;16.25;;;8.90;93.50;;;;;;5022597;28;20501;-73
2022/03/02 12:29:38;;;;;;;27.67;17.38;;;8.90;95.40;;;;;;5011909;28;20125;-73
2022/03/02 12:32:10;;;;;;;27.33;16.40;;;9.00;95.30;;;;;;5011678;28;20078;-73
2022/03/02 12:34:39;;;;;;;26.75;17.88;;;8.90;92.00;;;;;;5025243;28;20045;-73
2022/03/02 12:37:06;;;;;;;26.10;15.65;;;9.00;92.20;;;;;;5025579;28;20088;-73
2022/03/02 12:39:33;;;;;;;27.48;17.23;;;9.00;93.30;;;;;;5023454;28;20049;-73
2022/03/02 12:42:02;;;;;;;26.02;17.60;;;9.10;93.60;;;;;;5031729;28;20041;-73